Dubai Ambassador — HOEI — position and weather

sailwx.info

Track history (hours):
 
Tides and Currents Weather Stations Pressure Air Temp Water Temp Dewpoint Dewpoint Depression Visibility Wind Speed Wind Dir Waves Ship Positions

Dubai Ambassador

Last reported at 2018-Jul-20 12:31 UTC. Time now 2018-Jul-23 00:18 UTC.
Position N 30°59' E 122°32'.

Length 190 m; draft 6.2 m.

Type: Cargo ship. MMSI: 351949000.

Date/timePositionNaut miles runAvg speedWind from/ knotsBaromVisibWave heightAir tempDewpointWater temp
2018-Jul-20 12:31N 30°59' E 122°32'013.9
2018-Jul-20 12:29N 30°59' E 122°32'714.6
2018-Jul-20 11:59N 31°01' E 122°23'714.8
2018-Jul-20 11:30N 31°02' E 122°15'510.9
2018-Jul-20 11:01N 31°03' E 122°09'612.9
2018-Jul-20 10:31N 31°05' E 122°02'612.4
2018-Jul-20 10:01N 31°08' E 121°55'612.0
2018-Jul-20 09:29N 31°12' E 121°50'  
2018-Jul-16 03:34N 31°06' E 122°20'110.9
2018-Jul-16 03:27N 31°06' E 122°21'  
Track history (hours):
 
Tides and Currents Weather Stations Pressure Air Temp Water Temp Dewpoint Dewpoint Depression Visibility Wind Speed Wind Dir Waves Ship Positions

Dubai Ambassador

Last reported at 2018-Jul-20 12:31 UTC. Time now 2018-Jul-23 00:18 UTC.
Position N 30°59' E 122°32'.

Length 190 m; draft 6.2 m.

Type: Cargo ship. MMSI: 351949000.

Date/timePositionNaut miles runAvg speedWind from/ knotsBaromVisibWave heightAir tempDewpointWater temp
2018-Jul-20 12:31N 30°59' E 122°32'013.9
2018-Jul-20 12:29N 30°59' E 122°32'714.6
2018-Jul-20 11:59N 31°01' E 122°23'714.8
2018-Jul-20 11:30N 31°02' E 122°15'510.9
2018-Jul-20 11:01N 31°03' E 122°09'612.9
2018-Jul-20 10:31N 31°05' E 122°02'612.4
2018-Jul-20 10:01N 31°08' E 121°55'612.0
2018-Jul-20 09:29N 31°12' E 121°50'  
2018-Jul-16 03:34N 31°06' E 122°20'110.9
2018-Jul-16 03:27N 31°06' E 122°21'  

Dump ship's entire track history